createdAt,value
2022-12-25T00:03:52.423Z,1.90
2022-12-25T00:08:49.812Z,2.10
2022-12-25T00:13:48.808Z,2.10
2022-12-25T00:18:48.560Z,1.80
2022-12-25T00:23:47.059Z,1.80
2022-12-25T00:28:45.249Z,1.80
2022-12-25T00:33:45.018Z,1.80
2022-12-25T00:38:43.043Z,1.90
2022-12-25T00:43:44.208Z,1.90
2022-12-25T00:48:41.995Z,1.80
2022-12-25T00:53:42.219Z,1.90
2022-12-25T00:58:40.295Z,1.80
2022-12-25T01:03:38.412Z,1.80
2022-12-25T01:08:37.939Z,1.90
2022-12-25T01:13:37.633Z,2.10
2022-12-25T01:18:38.524Z,2.20
2022-12-25T01:23:37.312Z,2.40
2022-12-25T01:28:35.360Z,2.10
2022-12-25T01:33:32.600Z,1.90
2022-12-25T01:38:30.210Z,1.90
2022-12-25T01:43:32.604Z,1.70
2022-12-25T01:48:37.165Z,1.80
2022-12-25T01:53:34.656Z,1.60
2022-12-25T01:58:32.456Z,1.60
2022-12-25T02:03:30.147Z,1.40
2022-12-25T02:08:28.551Z,1.50
2022-12-25T02:13:25.994Z,1.40
2022-12-25T02:18:46.646Z,1.40
2022-12-25T02:24:11.814Z,1.60
2022-12-25T02:29:44.225Z,1.50
2022-12-25T02:34:59.679Z,1.50
2022-12-25T02:40:15.274Z,1.50
2022-12-25T02:45:34.953Z,1.60
2022-12-25T02:50:51.811Z,1.50
2022-12-25T02:56:09.307Z,1.50
2022-12-25T03:01:30.641Z,1.70
2022-12-25T03:06:43.413Z,1.70
2022-12-25T03:11:47.690Z,1.70
2022-12-25T03:16:51.870Z,1.70
2022-12-25T03:22:10.604Z,1.70
2022-12-25T03:27:08.099Z,1.70
2022-12-25T03:32:11.302Z,1.80
2022-12-25T03:37:35.605Z,1.80
2022-12-25T03:42:49.713Z,1.90
2022-12-25T03:48:12.233Z,2.10
2022-12-25T03:53:34.704Z,2.20
2022-12-25T03:58:50.729Z,2.10
2022-12-25T04:04:06.584Z,1.90
2022-12-25T04:09:23.067Z,1.90
2022-12-25T04:14:39.108Z,2.20
2022-12-25T04:20:05.594Z,2.20
2022-12-25T04:25:21.513Z,2.00
2022-12-25T04:30:37.457Z,1.90
2022-12-25T04:35:53.278Z,1.90
2022-12-25T04:40:52.873Z,1.90
2022-12-25T04:45:55.003Z,2.00
2022-12-25T04:50:53.455Z,2.00
2022-12-25T04:55:51.352Z,2.00
2022-12-25T05:00:50.261Z,2.00
2022-12-25T05:05:55.471Z,2.20
2022-12-25T05:10:55.172Z,2.20
2022-12-25T05:15:53.382Z,2.00
2022-12-25T05:20:55.852Z,2.10
2022-12-25T05:25:54.224Z,1.90
2022-12-25T05:30:57.328Z,1.70
2022-12-25T05:35:55.638Z,1.80
2022-12-25T05:40:54.117Z,2.00
2022-12-25T05:45:51.930Z,2.00
2022-12-25T05:50:49.299Z,2.10
2022-12-25T05:55:47.799Z,2.10
2022-12-25T06:00:46.145Z,2.00
2022-12-25T06:05:43.354Z,1.90
2022-12-25T06:10:40.701Z,1.80
2022-12-25T06:15:42.195Z,1.90
2022-12-25T06:20:42.721Z,2.00
2022-12-25T06:25:41.114Z,2.00
2022-12-25T06:30:38.916Z,2.20
2022-12-25T06:35:39.630Z,2.00
2022-12-25T06:40:36.881Z,2.00
2022-12-25T06:45:38.070Z,2.10
2022-12-25T06:50:35.393Z,2.10
2022-12-25T06:55:32.899Z,2.10
2022-12-25T07:00:30.304Z,1.90
2022-12-25T07:05:27.513Z,1.80
2022-12-25T07:10:25.373Z,1.80
2022-12-25T07:15:22.737Z,1.80
2022-12-25T07:20:20.340Z,1.70
2022-12-25T07:25:17.683Z,1.80
2022-12-25T07:30:15.357Z,1.80
2022-12-25T07:35:13.145Z,1.90
2022-12-25T07:40:11.085Z,2.20
2022-12-25T07:45:08.980Z,2.30
2022-12-25T07:50:07.637Z,2.30
2022-12-25T07:55:14.390Z,2.20
2022-12-25T08:00:12.659Z,2.30
2022-12-25T08:05:10.324Z,2.60
2022-12-25T08:10:08.165Z,2.50
2022-12-25T08:15:06.591Z,2.50
2022-12-25T08:20:06.103Z,2.50
2022-12-25T08:25:04.384Z,2.60
2022-12-25T08:30:02.751Z,2.50
2022-12-25T08:35:00.370Z,2.60
2022-12-25T08:40:00.438Z,2.60
2022-12-25T08:44:58.103Z,2.80
2022-12-25T08:49:56.577Z,2.70
2022-12-25T08:54:54.314Z,2.60
2022-12-25T08:59:51.545Z,2.70
2022-12-25T09:04:48.777Z,2.70
2022-12-25T09:09:46.540Z,2.80
2022-12-25T09:14:43.969Z,2.90
2022-12-25T09:19:41.265Z,2.80
2022-12-25T09:24:39.464Z,2.90
2022-12-25T09:29:36.892Z,3.00
2022-12-25T09:34:38.383Z,3.10
2022-12-25T09:39:38.230Z,2.90
2022-12-25T09:44:50.123Z,2.80
2022-12-25T09:49:58.416Z,2.90
2022-12-25T09:55:20.679Z,3.10
2022-12-25T10:00:29.071Z,3.00
2022-12-25T10:05:59.146Z,3.00
2022-12-25T10:11:25.033Z,3.00
2022-12-25T10:16:40.936Z,3.20
2022-12-25T10:21:38.844Z,3.10
2022-12-25T10:26:36.326Z,3.10
2022-12-25T10:31:37.463Z,3.00
2022-12-25T10:36:35.349Z,3.20
2022-12-25T10:41:57.133Z,3.30
2022-12-25T10:46:58.280Z,3.50
2022-12-25T10:51:58.995Z,3.10
2022-12-25T10:57:01.344Z,3.30
2022-12-25T11:02:11.842Z,3.30
2022-12-25T11:07:19.635Z,3.30
2022-12-25T11:12:25.184Z,3.40
2022-12-25T11:17:25.486Z,3.40
2022-12-25T11:22:23.974Z,3.40
2022-12-25T11:27:28.085Z,3.40
2022-12-25T11:32:31.935Z,3.50
2022-12-25T11:37:46.394Z,3.50
2022-12-25T11:42:58.255Z,3.60
2022-12-25T11:48:11.384Z,3.60
2022-12-25T11:53:25.375Z,3.60
2022-12-25T11:58:41.357Z,3.70
2022-12-25T12:03:41.494Z,3.60
2022-12-25T12:08:38.923Z,3.40
2022-12-25T12:14:01.016Z,3.50
2022-12-25T12:18:58.311Z,3.70
2022-12-25T12:24:09.990Z,3.90
2022-12-25T12:29:21.534Z,3.80
2022-12-25T12:34:42.666Z,3.90
2022-12-25T12:39:42.731Z,3.40
2022-12-25T12:44:42.023Z,3.50
2022-12-25T12:49:41.265Z,3.60
2022-12-25T12:54:56.322Z,3.10
2022-12-25T12:59:59.997Z,3.40
2022-12-25T13:05:08.304Z,3.50
2022-12-25T13:10:34.401Z,3.60
2022-12-25T13:15:35.092Z,3.60
2022-12-25T13:20:58.301Z,3.40
2022-12-25T13:26:04.757Z,3.20
2022-12-25T13:31:13.073Z,3.20
2022-12-25T13:36:13.234Z,3.30
2022-12-25T13:41:35.039Z,3.30
2022-12-25T13:46:32.325Z,3.40
2022-12-25T13:51:29.691Z,3.40
2022-12-25T13:56:27.261Z,3.50
2022-12-25T14:01:24.653Z,3.50
2022-12-25T14:06:27.080Z,3.50
2022-12-25T14:11:29.504Z,3.50
2022-12-25T14:16:27.703Z,3.30
2022-12-25T14:21:38.768Z,3.20
2022-12-25T14:26:40.291Z,3.00
2022-12-25T14:31:39.555Z,3.10
2022-12-25T14:36:38.282Z,3.00
2022-12-25T14:41:39.430Z,3.00
2022-12-25T14:46:37.353Z,3.10
2022-12-25T14:51:38.545Z,2.90
2022-12-25T14:56:39.400Z,2.90
2022-12-25T15:01:41.780Z,2.90
2022-12-25T15:07:07.541Z,2.80
2022-12-25T15:12:05.495Z,2.70
2022-12-25T15:17:02.779Z,2.50
2022-12-25T15:22:01.641Z,2.40
2022-12-25T15:27:00.738Z,2.20
2022-12-25T15:31:58.118Z,2.00
2022-12-25T15:36:56.141Z,2.20
2022-12-25T15:42:11.626Z,2.10
2022-12-25T15:47:23.132Z,2.00
2022-12-25T15:52:21.096Z,1.80
2022-12-25T15:57:21.505Z,1.80
2022-12-25T16:02:21.298Z,1.90
2022-12-25T16:07:27.879Z,1.90
2022-12-25T16:12:25.251Z,1.80
2022-12-25T16:17:24.172Z,1.90
2022-12-25T16:22:25.706Z,1.80
2022-12-25T16:27:23.161Z,1.80
2022-12-25T16:32:21.316Z,2.00
2022-12-25T16:37:18.621Z,1.80
2022-12-25T16:42:15.974Z,1.70
2022-12-25T16:47:14.080Z,1.80
2022-12-25T16:52:12.086Z,1.90
2022-12-25T16:57:09.678Z,1.80
2022-12-25T17:02:15.612Z,1.90
2022-12-25T17:07:14.218Z,1.60
2022-12-25T17:12:12.242Z,1.50
2022-12-25T17:17:09.745Z,1.30
2022-12-25T17:22:08.122Z,1.40
2022-12-25T17:27:08.727Z,1.50
2022-12-25T17:32:07.280Z,1.30
2022-12-25T17:37:06.308Z,1.50
2022-12-25T17:42:05.320Z,1.50
2022-12-25T17:47:03.526Z,1.50
2022-12-25T17:52:00.793Z,1.60
2022-12-25T17:56:58.143Z,1.50
2022-12-25T18:01:56.121Z,1.40
2022-12-25T18:06:53.734Z,1.40
2022-12-25T18:11:51.075Z,1.40
2022-12-25T18:17:13.468Z,1.30
2022-12-25T18:22:19.058Z,1.30
2022-12-25T18:27:44.244Z,1.30
2022-12-25T18:32:52.355Z,1.20
2022-12-25T18:37:56.541Z,1.30
2022-12-25T18:43:02.914Z,1.20
2022-12-25T18:48:12.040Z,1.20
2022-12-25T18:53:15.002Z,1.20
2022-12-25T18:58:18.415Z,1.20
2022-12-25T19:03:16.947Z,1.30
2022-12-25T19:08:15.266Z,1.20
2022-12-25T19:13:25.892Z,1.10
2022-12-25T19:18:40.234Z,1.10
2022-12-25T19:23:53.943Z,1.20
2022-12-25T19:29:20.245Z,1.30
2022-12-25T19:34:46.991Z,1.40
2022-12-25T19:40:02.547Z,1.40
2022-12-25T19:45:06.624Z,1.60
2022-12-25T19:50:15.016Z,1.50
2022-12-25T19:55:14.151Z,1.60
2022-12-25T20:00:41.919Z,1.50
2022-12-25T20:05:59.465Z,1.50
2022-12-25T20:11:14.213Z,1.40
2022-12-25T20:16:20.774Z,1.60
2022-12-25T20:21:39.099Z,1.50
2022-12-25T20:26:59.495Z,1.50
2022-12-25T20:32:13.128Z,1.40
2022-12-25T20:37:35.754Z,1.50
2022-12-25T20:42:59.421Z,1.50
2022-12-25T20:48:13.415Z,1.50
2022-12-25T20:53:26.672Z,1.60
2022-12-25T20:58:42.010Z,1.70
2022-12-25T21:03:55.487Z,1.70
2022-12-25T21:08:56.150Z,1.70
2022-12-25T21:14:10.376Z,1.60
2022-12-25T21:19:24.362Z,1.60
2022-12-25T21:24:38.768Z,1.70
2022-12-25T21:29:50.908Z,1.50
2022-12-25T21:34:57.241Z,1.40
2022-12-25T21:40:09.007Z,1.40
2022-12-25T21:45:11.855Z,1.40
2022-12-25T21:50:30.254Z,1.40
2022-12-25T21:55:29.808Z,1.40
2022-12-25T22:00:27.355Z,1.30
2022-12-25T22:05:43.194Z,1.30
2022-12-25T22:10:40.630Z,1.30
2022-12-25T22:15:56.664Z,1.20
2022-12-25T22:20:54.036Z,1.20
2022-12-25T22:25:51.512Z,1.30
2022-12-25T22:30:49.544Z,1.10
2022-12-25T22:35:46.966Z,1.00
2022-12-25T22:40:45.585Z,1.00
2022-12-25T22:45:45.800Z,1.10
2022-12-25T22:50:42.925Z,1.20
2022-12-25T22:55:46.407Z,1.10
2022-12-25T23:00:46.633Z,1.10
2022-12-25T23:05:44.145Z,1.40
2022-12-25T23:10:41.545Z,1.30
2022-12-25T23:15:39.851Z,1.40
2022-12-25T23:20:55.917Z,1.50
2022-12-25T23:26:09.188Z,1.50
2022-12-25T23:31:08.145Z,1.40
2022-12-25T23:36:06.016Z,1.40
2022-12-25T23:41:03.175Z,1.30
2022-12-25T23:46:00.465Z,1.30
2022-12-25T23:51:04.467Z,1.30
2022-12-25T23:56:02.684Z,1.30
